Nearby METAR Reports

 

KAUS - Austin, Texas, USA
Distance from station: WNW 16mi, 26km
Updated: Mon, 24-Jun-2019 10:53pm CDT
Few Clouds
Few Clouds
 Wind from calm
Wind: Calm
Temperature: 70°F , 21°C
Dew Point: 66°F , 19°C
Humidity: 88%
Barometer: 29.97 inHg , 1014.9 hPa
Clouds: Few Clouds
Visibility: 10 miles , 16 km
Cloud details: Few Clouds 25000 ft
2019/06/25 03:53 KAUS 250353Z 00000KT 10SM FEW250 21/19 A2997 RMK AO2 SLP142 T02060189 $
KEDC - Austin Exec, Texas, USA
Distance from station: NNW 21mi, 34km
Updated: Mon, 24-Jun-2019 10:55pm CDT
Clear
Clear
 Wind from NW
Wind: NW 3 mph , 6 km/h
Temperature: 68°F , 20°C
Dew Point: 66°F , 19°C
Humidity: 94%
Barometer: 29.99 inHg , 1015.6 hPa
Clouds: Clear
Visibility: 10 miles , 16 km
2019/06/25 03:55 KEDC 250355Z AUTO 31003KT 10SM CLR 20/19 A2999 RMK AO2
 
KATT - Austin/Mabry, Texas, USA
Distance from station: NW 25mi, 39km
Updated: Mon, 24-Jun-2019 10:51pm CDT
Clear
Clear
 Wind from calm
Wind: Calm
Temperature: 70°F , 21°C
Dew Point: 64°F , 18°C
Humidity: 83%
Barometer: 30.00 inHg , 1015.9 hPa
Clouds: Clear
Visibility: 10 miles , 16 km
2019/06/25 03:51 KATT 250351Z AUTO 00000KT 10SM CLR 21/18 A3000 RMK AO2 PRESRR SLP150 T02060183
KGYB - Giddings-Lee, Texas, USA
Distance from station: E 27mi, 43km
Updated: Mon, 24-Jun-2019 10:55pm CDT
Clear
Clear
 Wind from WSW
Wind: WSW 5 mph , 7 km/h
Temperature: 72°F , 22°C
Dew Point: 70°F , 21°C
Humidity: 94%
Barometer: 29.96 inHg , 1014.6 hPa
Clouds: Clear
Visibility: 10 miles , 16 km
2019/06/25 03:55 KGYB 250355Z AUTO 25004KT 10SM CLR 22/21 A2996 RMK AO2 T02160207
 
KHYI - San Marcos, Texas, USA
Distance from station: WSW 31mi, 49km
Updated: Mon, 24-Jun-2019 10:56pm CDT
Overcast
Overcast
 Wind from calm
Wind: Calm
Temperature: 70°F , 21°C
Dew Point: 68°F , 20°C
Humidity: 94%
Barometer: 29.99 inHg , 1015.6 hPa
Clouds: Overcast
Visibility: 10 miles , 16 km
Cloud details: Overcast 3100 ft
2019/06/25 03:56 KHYI 250356Z AUTO 00000KT 10SM OVC031 21/20 A2999 RMK AO2 SLP148 T02060200
K3T5 - La Grange, Texas, USA
Distance from station: ESE 32mi, 52km
Updated: Mon, 24-Jun-2019 10:55pm CDT
Clear
Clear
 Wind from calm
Wind: Calm
Temperature: 73°F , 23°C
Dew Point: 68°F , 20°C
Humidity: 83%
Barometer: 29.93 inHg , 1013.5 hPa
Clouds: Clear
Visibility: 10 miles , 16 km
2019/06/25 03:55 K3T5 250355Z AUTO 00000KT 10SM CLR 23/20 A2993 RMK AO2 T02250199
 
KT20 - Gonzales Muni, Texas, USA
Distance from station: S 41mi, 67km
Updated: Mon, 24-Jun-2019 10:55pm CDT
Mostly cloudy
Mostly cloudy
 Wind from NNE
Wind: NNE 3 mph , 6 km/h
Temperature: 75°F , 24°C
Dew Point: 70°F , 21°C
Humidity: 83%
Barometer: 29.95 inHg , 1014.2 hPa
Clouds: Mostly cloudy
Visibility: 10 miles , 16 km
Cloud details: Mostly cloudy 2600 ft
2019/06/25 03:55 KT20 250355Z AUTO 03003KT 10SM BKN026 24/21 A2995 RMK AO2 T02380212
KRYW - Lago Vista, Texas, USA
Distance from station: NW 42mi, 67km
Updated: Mon, 24-Jun-2019 10:55pm CDT
Clear
Clear
 Wind from N
Wind: N 6 mph , 9 km/h
Temperature: 66°F , 19°C
Dew Point: 64°F , 18°C
Humidity: 94%
Barometer: 30.03 inHg , 1016.9 hPa
Clouds: Clear
Visibility: 10 miles , 16 km
2019/06/25 03:55 KRYW 250355Z AUTO 36005KT 10SM CLR 19/18 A3003 RMK AO2 T01900181
 
KGTU - Georgetown, Texas, USA
Distance from station: NNW 42mi, 68km
Updated: Mon, 24-Jun-2019 10:56pm CDT
Clear
Clear
 Wind from WNW
Wind: WNW 5 mph , 7 km/h
Temperature: 68°F , 20°C
Dew Point: 64°F , 18°C
Humidity: 88%
Barometer: 30.02 inHg , 1016.6 hPa
Clouds: Clear
Visibility: 10 miles , 16 km
2019/06/25 03:56 KGTU 250356Z AUTO 29004KT 10SM CLR 20/18 A3002 RMK AO2 PRESRR SLP160 T02000183
KBAZ - New Braunfels, Texas, USA
Distance from station: SW 46mi, 74km
Updated: Mon, 24-Jun-2019 10:51pm CDT
Mostly cloudy
Mostly cloudy
 Wind from NNE
Wind: NNE 3 mph , 6 km/h
Temperature: 70°F , 21°C
Dew Point: 64°F , 18°C
Humidity: 83%
Barometer: 29.97 inHg , 1014.9 hPa
Clouds: Mostly cloudy
Visibility: 10 miles , 16 km
Cloud details: Mostly cloudy 2200 ft
2019/06/25 03:51 KBAZ 250351Z AUTO 03003KT 10SM BKN022 21/18 A2997 RMK AO2 SLP139 T02110183 $